Strona główna
METAR-TAF:

METAR-TAF

Lotnisko :

United States Naval Academy

Annapolis, Maryland, Stany Zjednoczone

Szerokość geograficzna: 38-59-29N, Długość geograficzna: 076-29-00W, wysokość: 2 m

Aktualna obserwacja pogody

Raport powstał 55 minut temu, godzina 08:54 UTC
Wiatr 3 kt od zachód
Temperatura 21°C
Wilgotność 56%
Ciśnienie 1012 hPa
Widzialność: 16.1 km
bezchmurnie

METAR: KNAK 070854Z AUTO 27003KT 10SM CLR 21/12 A2989 RMK AO2 RAE02 SLP124 P0000 60000 T02110117 50020 $

czas: 05:49 (09:49 UTC)


TAF: brakujący

Obserwacja i prognoza pogody dla ponad 4000 lotnisk (raport METAR i TAF).

Dostępne stacje oznaczono żółtymi i czerwonymi punktami na mapie.

Najedź kursorem aby zobaczyć nazwę stacji.

Kliknij aby zobaczyć obserwacje i prognozy pogody.

Aby zmienić mapę: kliknij na zielony przycisk z czarnym krzyżykiem, aby powiększyć; na zielony przycisk z myślnikiem, aby pomniejszyć; na zielone strzałki, aby przejść do map sąsiednich.


METAR-TAF: